This is the latest recevied weather packets stored in our database for station/object W8KVG. If no packets are shown the sender has not sent any weather packets the latest 10 day(s).
| Time | Temp. | Humidity | Pressure | Rain* | Wind** | Luminosity | Snow |
|---|---|---|---|---|---|---|---|
| 1777496295 | 13.89° C | 99% | 1005.4 hPa | 0 mm | - | 48 W/m² | - |
| 1777495991 | 14.44° C | 99% | 1005.4 hPa | 0 mm | - | 46 W/m² | - |
| 1777495687 | 14.44° C | 99% | 1005 hPa | 0 mm | - | 189 W/m² | - |
| 1777495383 | 15° C | 99% | 1005.1 hPa | 1.27 mm | - | 194 W/m² | - |
| 1777495080 | 13.89° C | 99% | 1005.2 hPa | 1.78 mm | - | 106 W/m² | - |
| 1777494777 | 13.89° C | 99% | 1005.5 hPa | 1.78 mm | - | 56 W/m² | - |
| 1777494474 | 13.89° C | 99% | 1005.6 hPa | 1.27 mm | - | 59 W/m² | - |
| 1777494171 | 13.89° C | 99% | 1005.6 hPa | 0.51 mm | - | 56 W/m² | - |
| 1777493868 | 13.89° C | 99% | 1005.7 hPa | 0 mm | - | 33 W/m² | - |
| 1777493565 | 13.89° C | 99% | 1005.7 hPa | 0 mm | - | 24 W/m² | - |
| 1777493263 | 13.89° C | 99% | 1005.5 hPa | 0 mm | - | 46 W/m² | - |
| 1777492953 | 13.89° C | 99% | 1005.4 hPa | 0 mm | - | 44 W/m² | - |
| 1777492650 | 13.89° C | 99% | 1005.7 hPa | 0 mm | - | 82 W/m² | - |
| 1777492345 | 13.89° C | 99% | 1005.5 hPa | 0.51 mm | - | 91 W/m² | - |
| 1777492041 | 14.44° C | 99% | 1005.4 hPa | 0.51 mm | - | 141 W/m² | - |
| 1777491739 | 13.89° C | 99% | 1005.4 hPa | 0.51 mm | - | 137 W/m² | - |
| 1777491436 | 13.89° C | 99% | 1005.4 hPa | 0 mm | - | 61 W/m² | - |
| 1777491133 | 13.89° C | 99% | 1005.6 hPa | 0 mm | - | 56 W/m² | - |
| 1777490828 | 13.89° C | 99% | 1005.5 hPa | 0 mm | - | 85 W/m² | - |
| 1777490525 | 13.89° C | 99% | 1005.5 hPa | 0 mm | - | 42 W/m² | - |
| 1777490221 | 14.44° C | 99% | 1005.3 hPa | 0 mm | - | 89 W/m² | - |
| 1777489919 | 13.89° C | 99% | 1005.4 hPa | 0 mm | - | 126 W/m² | - |
| 1777489616 | 13.89° C | 99% | 1005.6 hPa | 1.27 mm | - | 94 W/m² | - |
| 1777489312 | 13.89° C | 99% | 1005.6 hPa | 1.78 mm | - | 49 W/m² | - |
| 1777489009 | 13.89° C | 99% | 1005.6 hPa | 0.51 mm | - | 29 W/m² | - |
* Rain latest hour (hover to see other rain measurements)
** Current wind speed in m/s (hover to see current wind gust speed)